sensor_id;sensor_type;location;lat;lon;timestamp;P1;durP1;ratioP1;P2;durP2;ratioP2
62861;SDS011;48953;53.110;5.592;2023-11-22T00:01:03;23.48;;;11.32;;
62861;SDS011;48953;53.110;5.592;2023-11-22T00:03:29;25.40;;;11.30;;
62861;SDS011;48953;53.110;5.592;2023-11-22T00:05:56;23.67;;;11.45;;
62861;SDS011;48953;53.110;5.592;2023-11-22T00:08:22;22.85;;;11.07;;
62861;SDS011;48953;53.110;5.592;2023-11-22T00:10:48;22.90;;;11.55;;
62861;SDS011;48953;53.110;5.592;2023-11-22T00:13:14;24.08;;;11.80;;
62861;SDS011;48953;53.110;5.592;2023-11-22T00:15:40;27.30;;;12.52;;
62861;SDS011;48953;53.110;5.592;2023-11-22T00:18:06;30.02;;;14.32;;
62861;SDS011;48953;53.110;5.592;2023-11-22T00:20:32;32.83;;;13.95;;
62861;SDS011;48953;53.110;5.592;2023-11-22T00:23:01;32.50;;;14.60;;
62861;SDS011;48953;53.110;5.592;2023-11-22T00:25:28;34.70;;;15.80;;
62861;SDS011;48953;53.110;5.592;2023-11-22T00:27:55;34.65;;;14.43;;
62861;SDS011;48953;53.110;5.592;2023-11-22T00:30:21;30.50;;;14.02;;
62861;SDS011;48953;53.110;5.592;2023-11-22T00:32:48;32.22;;;14.32;;
62861;SDS011;48953;53.110;5.592;2023-11-22T00:35:14;33.30;;;14.02;;
62861;SDS011;48953;53.110;5.592;2023-11-22T00:37:40;33.13;;;14.73;;
62861;SDS011;48953;53.110;5.592;2023-11-22T00:40:06;32.45;;;15.15;;
62861;SDS011;48953;53.110;5.592;2023-11-22T00:42:38;36.23;;;14.90;;
62861;SDS011;48953;53.110;5.592;2023-11-22T00:45:06;33.78;;;14.27;;
62861;SDS011;48953;53.110;5.592;2023-11-22T00:47:33;29.85;;;13.73;;
62861;SDS011;48953;53.110;5.592;2023-11-22T00:49:59;31.65;;;13.68;;
62861;SDS011;48953;53.110;5.592;2023-11-22T00:52:26;31.65;;;14.30;;
62861;SDS011;48953;53.110;5.592;2023-11-22T00:54:52;33.30;;;13.77;;
62861;SDS011;48953;53.110;5.592;2023-11-22T00:57:18;36.47;;;14.65;;
62861;SDS011;48953;53.110;5.592;2023-11-22T00:59:44;34.78;;;14.43;;
62861;SDS011;48953;53.110;5.592;2023-11-22T01:02:10;35.35;;;14.27;;
62861;SDS011;48953;53.110;5.592;2023-11-22T01:04:36;32.80;;;13.63;;
62861;SDS011;48953;53.110;5.592;2023-11-22T01:07:02;37.63;;;14.38;;
62861;SDS011;48953;53.110;5.592;2023-11-22T01:09:31;31.63;;;13.73;;
62861;SDS011;48953;53.110;5.592;2023-11-22T01:11:58;31.02;;;14.27;;
62861;SDS011;48953;53.110;5.592;2023-11-22T01:14:24;34.13;;;14.70;;
62861;SDS011;48953;53.110;5.592;2023-11-22T01:16:51;32.15;;;14.55;;
62861;SDS011;48953;53.110;5.592;2023-11-22T01:19:17;34.72;;;14.00;;
62861;SDS011;48953;53.110;5.592;2023-11-22T01:21:43;33.28;;;14.45;;
62861;SDS011;48953;53.110;5.592;2023-11-22T01:24:09;32.72;;;14.27;;
62861;SDS011;48953;53.110;5.592;2023-11-22T01:26:36;33.00;;;14.55;;
62861;SDS011;48953;53.110;5.592;2023-11-22T01:29:03;33.15;;;14.02;;
62861;SDS011;48953;53.110;5.592;2023-11-22T01:31:29;33.53;;;14.50;;
62861;SDS011;48953;53.110;5.592;2023-11-22T01:33:55;33.65;;;14.00;;
62861;SDS011;48953;53.110;5.592;2023-11-22T01:36:21;36.67;;;14.23;;
62861;SDS011;48953;53.110;5.592;2023-11-22T01:38:47;31.48;;;13.98;;
62861;SDS011;48953;53.110;5.592;2023-11-22T01:41:14;31.35;;;13.60;;
62861;SDS011;48953;53.110;5.592;2023-11-22T01:43:40;36.88;;;14.90;;
62861;SDS011;48953;53.110;5.592;2023-11-22T01:46:10;35.38;;;14.10;;
62861;SDS011;48953;53.110;5.592;2023-11-22T01:48:40;30.40;;;13.60;;
62861;SDS011;48953;53.110;5.592;2023-11-22T01:51:06;37.00;;;15.00;;
62861;SDS011;48953;53.110;5.592;2023-11-22T01:53:33;34.28;;;15.15;;
62861;SDS011;48953;53.110;5.592;2023-11-22T01:55:59;30.38;;;14.10;;
62861;SDS011;48953;53.110;5.592;2023-11-22T01:58:27;29.15;;;13.70;;
62861;SDS011;48953;53.110;5.592;2023-11-22T02:00:53;33.90;;;15.13;;
62861;SDS011;48953;53.110;5.592;2023-11-22T02:03:19;39.17;;;14.27;;
62861;SDS011;48953;53.110;5.592;2023-11-22T02:05:45;38.97;;;15.82;;
62861;SDS011;48953;53.110;5.592;2023-11-22T02:08:12;31.95;;;14.52;;
62861;SDS011;48953;53.110;5.592;2023-11-22T02:10:38;32.60;;;14.10;;
62861;SDS011;48953;53.110;5.592;2023-11-22T02:13:07;32.63;;;14.15;;
62861;SDS011;48953;53.110;5.592;2023-11-22T02:15:34;35.23;;;14.57;;
62861;SDS011;48953;53.110;5.592;2023-11-22T02:18:00;33.45;;;14.18;;
62861;SDS011;48953;53.110;5.592;2023-11-22T02:20:27;33.72;;;14.38;;
62861;SDS011;48953;53.110;5.592;2023-11-22T02:22:53;35.58;;;14.73;;
62861;SDS011;48953;53.110;5.592;2023-11-22T02:25:19;33.85;;;14.40;;
62861;SDS011;48953;53.110;5.592;2023-11-22T02:27:45;36.88;;;14.43;;
62861;SDS011;48953;53.110;5.592;2023-11-22T02:30:11;35.15;;;14.57;;
62861;SDS011;48953;53.110;5.592;2023-11-22T02:32:37;37.28;;;15.20;;
62861;SDS011;48953;53.110;5.592;2023-11-22T02:35:04;34.70;;;14.77;;
62861;SDS011;48953;53.110;5.592;2023-11-22T02:37:32;31.40;;;14.02;;
62861;SDS011;48953;53.110;5.592;2023-11-22T02:40:04;34.70;;;15.60;;
62861;SDS011;48953;53.110;5.592;2023-11-22T02:42:31;36.47;;;15.90;;
62861;SDS011;48953;53.110;5.592;2023-11-22T02:44:58;38.47;;;16.73;;
62861;SDS011;48953;53.110;5.592;2023-11-22T02:47:24;46.25;;;18.92;;
62861;SDS011;48953;53.110;5.592;2023-11-22T02:49:50;39.45;;;16.33;;
62861;SDS011;48953;53.110;5.592;2023-11-22T02:52:15;44.42;;;18.23;;
62861;SDS011;48953;53.110;5.592;2023-11-22T02:54:43;44.17;;;17.38;;
62861;SDS011;48953;53.110;5.592;2023-11-22T02:57:10;47.20;;;18.58;;
62861;SDS011;48953;53.110;5.592;2023-11-22T02:59:36;44.42;;;19.10;;
62861;SDS011;48953;53.110;5.592;2023-11-22T03:02:02;47.35;;;19.73;;
62861;SDS011;48953;53.110;5.592;2023-11-22T03:04:28;42.78;;;18.02;;
62861;SDS011;48953;53.110;5.592;2023-11-22T03:06:54;44.50;;;18.23;;
62861;SDS011;48953;53.110;5.592;2023-11-22T03:09:20;47.42;;;18.75;;
62861;SDS011;48953;53.110;5.592;2023-11-22T03:11:48;43.75;;;18.27;;
62861;SDS011;48953;53.110;5.592;2023-11-22T03:14:13;52.72;;;19.90;;
62861;SDS011;48953;53.110;5.592;2023-11-22T03:16:40;54.88;;;20.45;;
62861;SDS011;48953;53.110;5.592;2023-11-22T03:19:07;48.13;;;17.50;;
62861;SDS011;48953;53.110;5.592;2023-11-22T03:21:33;42.85;;;16.58;;
62861;SDS011;48953;53.110;5.592;2023-11-22T03:24:00;43.25;;;16.55;;
62861;SDS011;48953;53.110;5.592;2023-11-22T03:26:28;49.67;;;16.98;;
62861;SDS011;48953;53.110;5.592;2023-11-22T03:28:54;50.38;;;18.80;;
62861;SDS011;48953;53.110;5.592;2023-11-22T03:31:20;56.17;;;18.13;;
62861;SDS011;48953;53.110;5.592;2023-11-22T03:33:46;56.33;;;19.00;;
62861;SDS011;48953;53.110;5.592;2023-11-22T03:36:12;39.90;;;16.17;;
62861;SDS011;48953;53.110;5.592;2023-11-22T03:38:39;40.28;;;16.30;;
62861;SDS011;48953;53.110;5.592;2023-11-22T03:41:05;45.53;;;17.30;;
62861;SDS011;48953;53.110;5.592;2023-11-22T03:43:31;52.10;;;18.02;;
62861;SDS011;48953;53.110;5.592;2023-11-22T03:45:57;57.50;;;20.98;;
62861;SDS011;48953;53.110;5.592;2023-11-22T03:48:23;48.90;;;18.05;;
62861;SDS011;48953;53.110;5.592;2023-11-22T03:50:51;48.85;;;19.95;;
62861;SDS011;48953;53.110;5.592;2023-11-22T03:53:16;45.00;;;18.35;;
62861;SDS011;48953;53.110;5.592;2023-11-22T03:55:43;54.92;;;20.55;;
62861;SDS011;48953;53.110;5.592;2023-11-22T03:58:09;45.88;;;18.67;;
62861;SDS011;48953;53.110;5.592;2023-11-22T04:00:35;59.42;;;21.73;;
62861;SDS011;48953;53.110;5.592;2023-11-22T04:03:01;64.55;;;22.50;;
62861;SDS011;48953;53.110;5.592;2023-11-22T04:05:27;62.13;;;22.83;;
62861;SDS011;48953;53.110;5.592;2023-11-22T04:07:53;58.03;;;21.13;;
62861;SDS011;48953;53.110;5.592;2023-11-22T04:10:21;70.43;;;22.88;;
62861;SDS011;48953;53.110;5.592;2023-11-22T04:12:47;69.43;;;24.17;;
62861;SDS011;48953;53.110;5.592;2023-11-22T04:15:13;65.95;;;23.35;;
62861;SDS011;48953;53.110;5.592;2023-11-22T04:17:42;64.82;;;23.30;;
62861;SDS011;48953;53.110;5.592;2023-11-22T04:20:08;81.90;;;26.25;;
62861;SDS011;48953;53.110;5.592;2023-11-22T04:22:39;79.55;;;27.02;;
62861;SDS011;48953;53.110;5.592;2023-11-22T04:25:05;67.75;;;24.92;;
62861;SDS011;48953;53.110;5.592;2023-11-22T04:27:33;72.03;;;25.08;;
62861;SDS011;48953;53.110;5.592;2023-11-22T04:29:59;76.93;;;25.42;;
62861;SDS011;48953;53.110;5.592;2023-11-22T04:32:25;73.55;;;24.85;;
62861;SDS011;48953;53.110;5.592;2023-11-22T04:34:51;79.90;;;25.98;;
62861;SDS011;48953;53.110;5.592;2023-11-22T04:37:17;85.13;;;26.17;;
62861;SDS011;48953;53.110;5.592;2023-11-22T04:39:43;86.93;;;26.73;;
62861;SDS011;48953;53.110;5.592;2023-11-22T04:42:09;87.18;;;26.58;;
62861;SDS011;48953;53.110;5.592;2023-11-22T04:44:35;86.47;;;26.05;;
62861;SDS011;48953;53.110;5.592;2023-11-22T04:47:01;89.18;;;27.20;;
62861;SDS011;48953;53.110;5.592;2023-11-22T04:49:27;79.20;;;25.55;;
62861;SDS011;48953;53.110;5.592;2023-11-22T04:51:53;86.80;;;25.15;;
62861;SDS011;48953;53.110;5.592;2023-11-22T04:54:20;77.72;;;25.45;;
62861;SDS011;48953;53.110;5.592;2023-11-22T04:56:46;86.43;;;25.42;;
62861;SDS011;48953;53.110;5.592;2023-11-22T04:59:12;89.50;;;25.92;;
62861;SDS011;48953;53.110;5.592;2023-11-22T05:01:38;77.55;;;23.95;;
62861;SDS011;48953;53.110;5.592;2023-11-22T05:04:04;77.45;;;24.13;;
62861;SDS011;48953;53.110;5.592;2023-11-22T05:06:30;83.97;;;23.80;;
62861;SDS011;48953;53.110;5.592;2023-11-22T05:08:56;76.18;;;23.60;;
62861;SDS011;48953;53.110;5.592;2023-11-22T05:11:22;76.45;;;22.63;;
62861;SDS011;48953;53.110;5.592;2023-11-22T05:13:48;76.13;;;23.98;;
62861;SDS011;48953;53.110;5.592;2023-11-22T05:16:15;80.07;;;24.63;;
62861;SDS011;48953;53.110;5.592;2023-11-22T05:18:41;76.13;;;23.95;;
62861;SDS011;48953;53.110;5.592;2023-11-22T05:21:07;88.53;;;24.13;;
62861;SDS011;48953;53.110;5.592;2023-11-22T05:23:33;82.85;;;23.85;;
62861;SDS011;48953;53.110;5.592;2023-11-22T05:25:59;94.63;;;25.90;;
62861;SDS011;48953;53.110;5.592;2023-11-22T05:28:25;71.22;;;22.52;;
62861;SDS011;48953;53.110;5.592;2023-11-22T05:30:51;69.13;;;22.67;;
62861;SDS011;48953;53.110;5.592;2023-11-22T05:33:17;79.68;;;26.50;;
62861;SDS011;48953;53.110;5.592;2023-11-22T05:35:43;90.40;;;31.35;;
62861;SDS011;48953;53.110;5.592;2023-11-22T05:38:09;73.45;;;24.23;;
62861;SDS011;48953;53.110;5.592;2023-11-22T05:40:35;81.22;;;23.58;;
62861;SDS011;48953;53.110;5.592;2023-11-22T05:43:01;80.18;;;24.20;;
62861;SDS011;48953;53.110;5.592;2023-11-22T05:45:27;84.97;;;23.42;;
62861;SDS011;48953;53.110;5.592;2023-11-22T05:47:53;86.47;;;23.85;;
62861;SDS011;48953;53.110;5.592;2023-11-22T05:50:19;78.30;;;23.45;;
62861;SDS011;48953;53.110;5.592;2023-11-22T05:52:45;79.97;;;23.23;;
62861;SDS011;48953;53.110;5.592;2023-11-22T05:55:11;79.95;;;23.20;;
62861;SDS011;48953;53.110;5.592;2023-11-22T05:57:39;80.35;;;22.40;;
62861;SDS011;48953;53.110;5.592;2023-11-22T06:00:05;80.68;;;23.65;;
62861;SDS011;48953;53.110;5.592;2023-11-22T06:02:31;73.95;;;22.83;;
62861;SDS011;48953;53.110;5.592;2023-11-22T06:04:57;78.55;;;23.48;;
62861;SDS011;48953;53.110;5.592;2023-11-22T06:07:23;85.88;;;22.83;;
62861;SDS011;48953;53.110;5.592;2023-11-22T06:09:49;74.93;;;21.90;;
62861;SDS011;48953;53.110;5.592;2023-11-22T06:12:15;92.85;;;24.75;;
62861;SDS011;48953;53.110;5.592;2023-11-22T06:14:41;85.65;;;23.98;;
62861;SDS011;48953;53.110;5.592;2023-11-22T06:17:07;84.15;;;22.85;;
62861;SDS011;48953;53.110;5.592;2023-11-22T06:19:33;91.85;;;24.33;;
62861;SDS011;48953;53.110;5.592;2023-11-22T06:21:59;86.70;;;23.20;;
62861;SDS011;48953;53.110;5.592;2023-11-22T06:24:26;89.60;;;23.08;;
62861;SDS011;48953;53.110;5.592;2023-11-22T06:26:52;80.15;;;22.13;;
62861;SDS011;48953;53.110;5.592;2023-11-22T06:29:18;88.03;;;23.10;;
62861;SDS011;48953;53.110;5.592;2023-11-22T06:31:45;98.28;;;23.42;;
62861;SDS011;48953;53.110;5.592;2023-11-22T06:34:11;88.07;;;23.75;;
62861;SDS011;48953;53.110;5.592;2023-11-22T06:36:37;94.38;;;23.65;;
62861;SDS011;48953;53.110;5.592;2023-11-22T06:39:03;82.53;;;22.08;;
62861;SDS011;48953;53.110;5.592;2023-11-22T06:41:30;89.15;;;23.38;;
62861;SDS011;48953;53.110;5.592;2023-11-22T06:43:56;91.32;;;22.58;;
62861;SDS011;48953;53.110;5.592;2023-11-22T06:46:22;80.47;;;21.85;;
62861;SDS011;48953;53.110;5.592;2023-11-22T06:48:48;79.68;;;22.17;;
62861;SDS011;48953;53.110;5.592;2023-11-22T06:51:15;80.13;;;23.00;;
62861;SDS011;48953;53.110;5.592;2023-11-22T06:53:42;81.53;;;21.88;;
62861;SDS011;48953;53.110;5.592;2023-11-22T06:56:08;79.55;;;21.73;;
62861;SDS011;48953;53.110;5.592;2023-11-22T06:58:33;70.55;;;21.10;;
62861;SDS011;48953;53.110;5.592;2023-11-22T07:01:00;76.00;;;20.65;;
62861;SDS011;48953;53.110;5.592;2023-11-22T07:03:26;75.90;;;20.45;;
62861;SDS011;48953;53.110;5.592;2023-11-22T07:05:52;66.32;;;19.63;;
62861;SDS011;48953;53.110;5.592;2023-11-22T07:08:18;72.40;;;20.38;;
62861;SDS011;48953;53.110;5.592;2023-11-22T07:10:44;69.95;;;19.73;;
62861;SDS011;48953;53.110;5.592;2023-11-22T07:13:11;72.93;;;20.05;;
62861;SDS011;48953;53.110;5.592;2023-11-22T07:15:40;74.32;;;20.88;;
62861;SDS011;48953;53.110;5.592;2023-11-22T07:18:06;74.57;;;20.13;;
62861;SDS011;48953;53.110;5.592;2023-11-22T07:20:32;77.38;;;21.63;;
62861;SDS011;48953;53.110;5.592;2023-11-22T07:22:58;78.47;;;21.33;;
62861;SDS011;48953;53.110;5.592;2023-11-22T07:25:25;79.50;;;20.13;;
62861;SDS011;48953;53.110;5.592;2023-11-22T07:27:51;81.43;;;20.33;;
62861;SDS011;48953;53.110;5.592;2023-11-22T07:30:20;78.38;;;21.13;;
62861;SDS011;48953;53.110;5.592;2023-11-22T07:32:52;90.97;;;22.70;;
62861;SDS011;48953;53.110;5.592;2023-11-22T07:35:18;77.97;;;21.33;;
62861;SDS011;48953;53.110;5.592;2023-11-22T07:37:47;84.93;;;22.45;;
62861;SDS011;48953;53.110;5.592;2023-11-22T07:40:13;84.18;;;21.52;;
62861;SDS011;48953;53.110;5.592;2023-11-22T07:42:40;87.55;;;23.23;;
62861;SDS011;48953;53.110;5.592;2023-11-22T07:45:09;77.80;;;21.98;;
62861;SDS011;48953;53.110;5.592;2023-11-22T07:47:36;82.63;;;22.42;;
62861;SDS011;48953;53.110;5.592;2023-11-22T07:50:06;85.97;;;23.73;;
62861;SDS011;48953;53.110;5.592;2023-11-22T07:52:32;87.63;;;24.20;;
62861;SDS011;48953;53.110;5.592;2023-11-22T07:54:58;80.38;;;23.70;;
62861;SDS011;48953;53.110;5.592;2023-11-22T07:57:25;81.78;;;21.95;;
62861;SDS011;48953;53.110;5.592;2023-11-22T07:59:51;84.82;;;21.48;;
62861;SDS011;48953;53.110;5.592;2023-11-22T08:02:20;89.13;;;21.30;;
62861;SDS011;48953;53.110;5.592;2023-11-22T08:04:46;83.55;;;20.63;;
62861;SDS011;48953;53.110;5.592;2023-11-22T08:07:15;75.93;;;20.58;;
62861;SDS011;48953;53.110;5.592;2023-11-22T08:09:41;85.32;;;21.73;;
62861;SDS011;48953;53.110;5.592;2023-11-22T08:12:08;81.72;;;22.30;;
62861;SDS011;48953;53.110;5.592;2023-11-22T08:14:36;77.85;;;21.00;;
62861;SDS011;48953;53.110;5.592;2023-11-22T08:17:02;80.10;;;21.80;;
62861;SDS011;48953;53.110;5.592;2023-11-22T08:19:28;83.53;;;21.92;;
62861;SDS011;48953;53.110;5.592;2023-11-22T08:21:54;79.85;;;23.13;;
62861;SDS011;48953;53.110;5.592;2023-11-22T08:24:20;87.57;;;24.98;;
62861;SDS011;48953;53.110;5.592;2023-11-22T08:26:47;80.80;;;23.02;;
62861;SDS011;48953;53.110;5.592;2023-11-22T08:29:13;84.05;;;21.92;;
62861;SDS011;48953;53.110;5.592;2023-11-22T08:31:39;88.45;;;22.05;;
62861;SDS011;48953;53.110;5.592;2023-11-22T08:34:05;83.15;;;21.38;;
62861;SDS011;48953;53.110;5.592;2023-11-22T08:36:35;77.40;;;21.15;;
62861;SDS011;48953;53.110;5.592;2023-11-22T08:39:04;74.68;;;19.88;;
62861;SDS011;48953;53.110;5.592;2023-11-22T08:41:30;77.15;;;20.75;;
62861;SDS011;48953;53.110;5.592;2023-11-22T08:43:57;69.47;;;20.10;;
62861;SDS011;48953;53.110;5.592;2023-11-22T08:46:23;73.72;;;19.75;;
62861;SDS011;48953;53.110;5.592;2023-11-22T08:48:49;81.57;;;20.42;;
62861;SDS011;48953;53.110;5.592;2023-11-22T08:51:18;75.93;;;21.27;;
62861;SDS011;48953;53.110;5.592;2023-11-22T08:53:44;69.93;;;19.98;;
62861;SDS011;48953;53.110;5.592;2023-11-22T08:56:11;80.10;;;20.48;;
62861;SDS011;48953;53.110;5.592;2023-11-22T08:58:37;72.30;;;20.20;;
62861;SDS011;48953;53.110;5.592;2023-11-22T09:01:04;76.05;;;21.30;;
62861;SDS011;48953;53.110;5.592;2023-11-22T09:03:30;67.13;;;20.05;;
62861;SDS011;48953;53.110;5.592;2023-11-22T09:05:56;77.22;;;20.80;;
62861;SDS011;48953;53.110;5.592;2023-11-22T09:08:22;74.22;;;20.40;;
62861;SDS011;48953;53.110;5.592;2023-11-22T09:10:48;67.05;;;19.95;;
62861;SDS011;48953;53.110;5.592;2023-11-22T09:13:15;78.60;;;19.92;;
62861;SDS011;48953;53.110;5.592;2023-11-22T09:15:44;76.80;;;20.50;;
62861;SDS011;48953;53.110;5.592;2023-11-22T09:18:10;75.68;;;19.67;;
62861;SDS011;48953;53.110;5.592;2023-11-22T09:20:39;66.00;;;19.03;;
62861;SDS011;48953;53.110;5.592;2023-11-22T09:23:09;68.40;;;19.27;;
62861;SDS011;48953;53.110;5.592;2023-11-22T09:25:35;69.65;;;19.17;;
62861;SDS011;48953;53.110;5.592;2023-11-22T09:28:01;68.57;;;18.35;;
62861;SDS011;48953;53.110;5.592;2023-11-22T09:30:29;68.45;;;19.58;;
62861;SDS011;48953;53.110;5.592;2023-11-22T09:33:11;68.28;;;19.38;;
62861;SDS011;48953;53.110;5.592;2023-11-22T09:35:39;68.53;;;18.40;;
62861;SDS011;48953;53.110;5.592;2023-11-22T09:38:06;62.88;;;18.42;;
62861;SDS011;48953;53.110;5.592;2023-11-22T09:40:41;60.88;;;18.65;;
62861;SDS011;48953;53.110;5.592;2023-11-22T09:43:08;56.58;;;17.05;;
62861;SDS011;48953;53.110;5.592;2023-11-22T09:45:34;53.35;;;18.52;;
62861;SDS011;48953;53.110;5.592;2023-11-22T09:48:02;56.97;;;19.08;;
62861;SDS011;48953;53.110;5.592;2023-11-22T09:52:59;58.45;;;21.05;;
62861;SDS011;48953;53.110;5.592;2023-11-22T09:55:27;57.03;;;19.10;;
62861;SDS011;48953;53.110;5.592;2023-11-22T09:57:53;52.75;;;17.45;;
62861;SDS011;48953;53.110;5.592;2023-11-22T10:00:20;53.33;;;18.40;;
62861;SDS011;48953;53.110;5.592;2023-11-22T10:02:49;50.97;;;17.95;;
62861;SDS011;48953;53.110;5.592;2023-11-22T10:05:15;49.15;;;17.17;;
62861;SDS011;48953;53.110;5.592;2023-11-22T10:07:41;43.72;;;15.20;;
62861;SDS011;48953;53.110;5.592;2023-11-22T10:10:08;42.00;;;14.93;;
62861;SDS011;48953;53.110;5.592;2023-11-22T10:12:36;37.20;;;14.82;;
62861;SDS011;48953;53.110;5.592;2023-11-22T10:15:14;34.55;;;13.85;;
62861;SDS011;48953;53.110;5.592;2023-11-22T10:17:42;34.47;;;13.50;;
62861;SDS011;48953;53.110;5.592;2023-11-22T10:20:12;32.10;;;12.98;;
62861;SDS011;48953;53.110;5.592;2023-11-22T10:22:45;33.17;;;13.00;;
62861;SDS011;48953;53.110;5.592;2023-11-22T10:25:12;32.92;;;12.98;;
62861;SDS011;48953;53.110;5.592;2023-11-22T10:27:38;33.88;;;12.95;;
62861;SDS011;48953;53.110;5.592;2023-11-22T10:30:06;33.25;;;13.70;;
62861;SDS011;48953;53.110;5.592;2023-11-22T10:32:34;30.75;;;13.73;;
62861;SDS011;48953;53.110;5.592;2023-11-22T10:35:02;34.00;;;14.23;;
62861;SDS011;48953;53.110;5.592;2023-11-22T10:37:29;32.33;;;13.30;;
62861;SDS011;48953;53.110;5.592;2023-11-22T10:39:55;31.48;;;13.68;;
62861;SDS011;48953;53.110;5.592;2023-11-22T10:42:21;28.60;;;13.68;;
62861;SDS011;48953;53.110;5.592;2023-11-22T10:44:48;31.85;;;13.43;;
62861;SDS011;48953;53.110;5.592;2023-11-22T10:47:15;27.33;;;12.45;;
62861;SDS011;48953;53.110;5.592;2023-11-22T10:49:44;24.05;;;12.57;;
62861;SDS011;48953;53.110;5.592;2023-11-22T10:52:10;32.58;;;12.07;;
62861;SDS011;48953;53.110;5.592;2023-11-22T10:54:40;23.55;;;12.00;;
62861;SDS011;48953;53.110;5.592;2023-11-22T10:57:07;24.50;;;11.50;;
62861;SDS011;48953;53.110;5.592;2023-11-22T10:59:34;22.60;;;11.95;;
62861;SDS011;48953;53.110;5.592;2023-11-22T11:02:01;22.17;;;11.23;;
62861;SDS011;48953;53.110;5.592;2023-11-22T11:04:35;23.00;;;12.13;;
62861;SDS011;48953;53.110;5.592;2023-11-22T11:07:04;22.40;;;11.23;;
62861;SDS011;48953;53.110;5.592;2023-11-22T11:09:31;27.63;;;13.50;;
62861;SDS011;48953;53.110;5.592;2023-11-22T11:11:59;25.83;;;12.35;;
62861;SDS011;48953;53.110;5.592;2023-11-22T11:14:25;26.48;;;13.25;;
62861;SDS011;48953;53.110;5.592;2023-11-22T11:16:52;26.42;;;13.25;;
62861;SDS011;48953;53.110;5.592;2023-11-22T11:19:20;25.50;;;12.48;;
62861;SDS011;48953;53.110;5.592;2023-11-22T11:21:47;26.67;;;12.55;;
62861;SDS011;48953;53.110;5.592;2023-11-22T11:24:13;26.90;;;13.57;;
62861;SDS011;48953;53.110;5.592;2023-11-22T11:26:40;28.42;;;12.80;;
62861;SDS011;48953;53.110;5.592;2023-11-22T11:29:06;25.05;;;13.80;;
62861;SDS011;48953;53.110;5.592;2023-11-22T11:31:33;23.80;;;12.70;;
62861;SDS011;48953;53.110;5.592;2023-11-22T11:34:00;26.55;;;13.32;;
62861;SDS011;48953;53.110;5.592;2023-11-22T11:36:30;26.23;;;13.18;;
62861;SDS011;48953;53.110;5.592;2023-11-22T11:39:05;24.73;;;12.60;;
62861;SDS011;48953;53.110;5.592;2023-11-22T11:41:34;25.83;;;12.50;;
62861;SDS011;48953;53.110;5.592;2023-11-22T11:44:06;25.33;;;12.68;;
62861;SDS011;48953;53.110;5.592;2023-11-22T11:46:34;24.88;;;11.95;;
62861;SDS011;48953;53.110;5.592;2023-11-22T11:49:00;24.92;;;11.93;;
62861;SDS011;48953;53.110;5.592;2023-11-22T11:51:28;24.73;;;12.57;;
62861;SDS011;48953;53.110;5.592;2023-11-22T11:53:54;26.25;;;12.50;;
62861;SDS011;48953;53.110;5.592;2023-11-22T11:56:21;23.40;;;12.02;;
62861;SDS011;48953;53.110;5.592;2023-11-22T11:58:48;23.33;;;12.57;;
62861;SDS011;48953;53.110;5.592;2023-11-22T12:01:18;25.75;;;12.15;;
62861;SDS011;48953;53.110;5.592;2023-11-22T12:03:47;22.45;;;11.57;;
62861;SDS011;48953;53.110;5.592;2023-11-22T12:06:16;24.33;;;11.98;;
62861;SDS011;48953;53.110;5.592;2023-11-22T12:08:43;26.08;;;12.40;;
62861;SDS011;48953;53.110;5.592;2023-11-22T12:11:09;22.58;;;12.45;;
62861;SDS011;48953;53.110;5.592;2023-11-22T12:13:35;25.10;;;12.93;;
62861;SDS011;48953;53.110;5.592;2023-11-22T12:16:08;23.27;;;11.95;;
62861;SDS011;48953;53.110;5.592;2023-11-22T12:18:42;23.40;;;11.55;;
62861;SDS011;48953;53.110;5.592;2023-11-22T12:21:08;26.90;;;13.25;;
62861;SDS011;48953;53.110;5.592;2023-11-22T12:23:40;26.45;;;12.88;;
62861;SDS011;48953;53.110;5.592;2023-11-22T12:26:14;23.27;;;12.88;;
62861;SDS011;48953;53.110;5.592;2023-11-22T12:28:40;24.42;;;13.18;;
62861;SDS011;48953;53.110;5.592;2023-11-22T12:31:10;23.25;;;12.43;;
62861;SDS011;48953;53.110;5.592;2023-11-22T12:33:37;25.20;;;13.20;;
62861;SDS011;48953;53.110;5.592;2023-11-22T12:36:04;23.75;;;12.13;;
62861;SDS011;48953;53.110;5.592;2023-11-22T12:38:31;23.27;;;11.82;;
62861;SDS011;48953;53.110;5.592;2023-11-22T12:40:57;22.30;;;12.30;;
62861;SDS011;48953;53.110;5.592;2023-11-22T12:43:23;24.23;;;12.55;;
62861;SDS011;48953;53.110;5.592;2023-11-22T12:45:58;22.77;;;12.15;;
62861;SDS011;48953;53.110;5.592;2023-11-22T12:48:24;24.98;;;13.05;;
62861;SDS011;48953;53.110;5.592;2023-11-22T12:50:53;21.42;;;12.07;;
62861;SDS011;48953;53.110;5.592;2023-11-22T12:53:19;22.05;;;12.32;;
62861;SDS011;48953;53.110;5.592;2023-11-22T12:55:51;21.98;;;12.10;;
62861;SDS011;48953;53.110;5.592;2023-11-22T12:58:18;23.08;;;12.73;;
62861;SDS011;48953;53.110;5.592;2023-11-22T13:00:44;24.30;;;12.60;;
62861;SDS011;48953;53.110;5.592;2023-11-22T13:03:11;24.80;;;12.60;;
62861;SDS011;48953;53.110;5.592;2023-11-22T13:05:37;22.83;;;12.13;;
62861;SDS011;48953;53.110;5.592;2023-11-22T13:08:03;23.23;;;12.35;;
62861;SDS011;48953;53.110;5.592;2023-11-22T13:10:29;28.05;;;13.27;;
62861;SDS011;48953;53.110;5.592;2023-11-22T13:12:56;26.00;;;13.15;;
62861;SDS011;48953;53.110;5.592;2023-11-22T13:15:22;24.55;;;13.10;;
62861;SDS011;48953;53.110;5.592;2023-11-22T13:17:50;23.35;;;13.02;;
62861;SDS011;48953;53.110;5.592;2023-11-22T13:20:20;23.05;;;12.60;;
62861;SDS011;48953;53.110;5.592;2023-11-22T13:22:47;25.20;;;12.70;;
62861;SDS011;48953;53.110;5.592;2023-11-22T13:25:13;20.38;;;10.77;;
62861;SDS011;48953;53.110;5.592;2023-11-22T13:27:39;20.52;;;11.38;;
62861;SDS011;48953;53.110;5.592;2023-11-22T13:30:06;23.70;;;12.23;;
62861;SDS011;48953;53.110;5.592;2023-11-22T13:32:32;24.00;;;12.60;;
62861;SDS011;48953;53.110;5.592;2023-11-22T13:34:59;26.98;;;13.35;;
62861;SDS011;48953;53.110;5.592;2023-11-22T13:37:25;24.23;;;12.35;;
62861;SDS011;48953;53.110;5.592;2023-11-22T13:39:52;22.52;;;12.38;;
62861;SDS011;48953;53.110;5.592;2023-11-22T13:42:18;20.63;;;10.93;;
62861;SDS011;48953;53.110;5.592;2023-11-22T13:44:44;21.20;;;11.90;;
62861;SDS011;48953;53.110;5.592;2023-11-22T13:47:10;21.25;;;11.38;;
62861;SDS011;48953;53.110;5.592;2023-11-22T13:49:38;20.25;;;10.68;;
62861;SDS011;48953;53.110;5.592;2023-11-22T13:52:05;21.40;;;11.50;;
62861;SDS011;48953;53.110;5.592;2023-11-22T13:54:31;21.05;;;11.40;;
62861;SDS011;48953;53.110;5.592;2023-11-22T13:57:00;22.10;;;11.75;;
62861;SDS011;48953;53.110;5.592;2023-11-22T13:59:26;19.40;;;11.00;;
62861;SDS011;48953;53.110;5.592;2023-11-22T14:01:53;20.27;;;11.07;;
62861;SDS011;48953;53.110;5.592;2023-11-22T14:04:19;17.77;;;10.60;;
62861;SDS011;48953;53.110;5.592;2023-11-22T14:06:45;19.27;;;11.23;;
62861;SDS011;48953;53.110;5.592;2023-11-22T14:09:11;19.92;;;11.02;;
62861;SDS011;48953;53.110;5.592;2023-11-22T14:11:39;21.88;;;11.63;;
62861;SDS011;48953;53.110;5.592;2023-11-22T14:14:05;19.98;;;11.63;;
62861;SDS011;48953;53.110;5.592;2023-11-22T14:16:34;19.83;;;11.10;;
62861;SDS011;48953;53.110;5.592;2023-11-22T14:19:03;20.58;;;11.13;;
62861;SDS011;48953;53.110;5.592;2023-11-22T14:21:30;20.52;;;11.25;;